sensor_id;sensor_type;location;lat;lon;timestamp;P1;durP1;ratioP1;P2;durP2;ratioP2
6117;SDS011;3089;48.202;11.510;2022-08-27T00:01:46;6.23;;;3.30;;
6117;SDS011;3089;48.202;11.510;2022-08-27T00:04:14;8.23;;;4.17;;
6117;SDS011;3089;48.202;11.510;2022-08-27T00:06:42;6.53;;;3.70;;
6117;SDS011;3089;48.202;11.510;2022-08-27T00:09:11;7.47;;;3.80;;
6117;SDS011;3089;48.202;11.510;2022-08-27T00:11:39;7.43;;;3.80;;
6117;SDS011;3089;48.202;11.510;2022-08-27T00:14:07;7.30;;;4.00;;
6117;SDS011;3089;48.202;11.510;2022-08-27T00:16:36;8.17;;;4.50;;
6117;SDS011;3089;48.202;11.510;2022-08-27T00:19:04;8.70;;;4.30;;
6117;SDS011;3089;48.202;11.510;2022-08-27T00:21:32;7.17;;;3.90;;
6117;SDS011;3089;48.202;11.510;2022-08-27T00:24:00;5.70;;;3.63;;
6117;SDS011;3089;48.202;11.510;2022-08-27T00:26:28;7.20;;;4.13;;
6117;SDS011;3089;48.202;11.510;2022-08-27T00:28:56;9.47;;;4.40;;
6117;SDS011;3089;48.202;11.510;2022-08-27T00:31:24;9.20;;;3.87;;
6117;SDS011;3089;48.202;11.510;2022-08-27T00:33:55;6.53;;;3.57;;
6117;SDS011;3089;48.202;11.510;2022-08-27T00:36:23;17.93;;;5.10;;
6117;SDS011;3089;48.202;11.510;2022-08-27T00:38:51;10.03;;;4.40;;
6117;SDS011;3089;48.202;11.510;2022-08-27T00:41:20;9.10;;;3.83;;
6117;SDS011;3089;48.202;11.510;2022-08-27T00:43:50;6.53;;;3.43;;
6117;SDS011;3089;48.202;11.510;2022-08-27T00:46:21;7.53;;;3.93;;
6117;SDS011;3089;48.202;11.510;2022-08-27T00:48:52;6.43;;;3.53;;
6117;SDS011;3089;48.202;11.510;2022-08-27T00:51:24;7.97;;;3.83;;
6117;SDS011;3089;48.202;11.510;2022-08-27T00:53:53;6.67;;;3.70;;
6117;SDS011;3089;48.202;11.510;2022-08-27T00:56:24;7.13;;;3.40;;
6117;SDS011;3089;48.202;11.510;2022-08-27T00:58:54;5.97;;;3.20;;
6117;SDS011;3089;48.202;11.510;2022-08-27T01:01:24;26.80;;;3.60;;
6117;SDS011;3089;48.202;11.510;2022-08-27T01:03:58;13.60;;;4.20;;
6117;SDS011;3089;48.202;11.510;2022-08-27T01:06:29;6.47;;;3.60;;
6117;SDS011;3089;48.202;11.510;2022-08-27T01:09:04;6.40;;;3.50;;
6117;SDS011;3089;48.202;11.510;2022-08-27T01:11:35;7.70;;;3.30;;
6117;SDS011;3089;48.202;11.510;2022-08-27T01:14:04;5.60;;;3.30;;
6117;SDS011;3089;48.202;11.510;2022-08-27T01:16:34;7.30;;;3.60;;
6117;SDS011;3089;48.202;11.510;2022-08-27T01:19:08;9.20;;;3.70;;
6117;SDS011;3089;48.202;11.510;2022-08-27T01:21:41;8.03;;;3.97;;
6117;SDS011;3089;48.202;11.510;2022-08-27T01:24:24;7.40;;;3.53;;
6117;SDS011;3089;48.202;11.510;2022-08-27T01:26:57;8.10;;;3.90;;
6117;SDS011;3089;48.202;11.510;2022-08-27T01:29:27;6.80;;;3.83;;
6117;SDS011;3089;48.202;11.510;2022-08-27T01:31:57;7.70;;;4.10;;
6117;SDS011;3089;48.202;11.510;2022-08-27T01:34:31;8.10;;;4.00;;
6117;SDS011;3089;48.202;11.510;2022-08-27T01:36:59;8.03;;;4.57;;
6117;SDS011;3089;48.202;11.510;2022-08-27T01:39:29;6.60;;;4.53;;
6117;SDS011;3089;48.202;11.510;2022-08-27T01:42:00;8.67;;;4.77;;
6117;SDS011;3089;48.202;11.510;2022-08-27T01:44:39;9.40;;;4.70;;
6117;SDS011;3089;48.202;11.510;2022-08-27T01:47:08;7.90;;;4.30;;
6117;SDS011;3089;48.202;11.510;2022-08-27T01:49:37;8.30;;;4.13;;
6117;SDS011;3089;48.202;11.510;2022-08-27T01:52:04;8.73;;;4.13;;
6117;SDS011;3089;48.202;11.510;2022-08-27T01:54:34;13.43;;;4.50;;
6117;SDS011;3089;48.202;11.510;2022-08-27T01:57:02;6.80;;;4.40;;
6117;SDS011;3089;48.202;11.510;2022-08-27T01:59:30;7.57;;;4.50;;
6117;SDS011;3089;48.202;11.510;2022-08-27T02:02:05;9.00;;;4.77;;
6117;SDS011;3089;48.202;11.510;2022-08-27T02:04:33;10.30;;;4.60;;
6117;SDS011;3089;48.202;11.510;2022-08-27T02:07:02;8.60;;;4.57;;
6117;SDS011;3089;48.202;11.510;2022-08-27T02:09:30;8.17;;;4.70;;
6117;SDS011;3089;48.202;11.510;2022-08-27T02:12:00;12.13;;;5.10;;
6117;SDS011;3089;48.202;11.510;2022-08-27T02:14:29;10.70;;;4.87;;
6117;SDS011;3089;48.202;11.510;2022-08-27T02:16:57;6.93;;;4.90;;
6117;SDS011;3089;48.202;11.510;2022-08-27T02:19:25;8.53;;;4.00;;
6117;SDS011;3089;48.202;11.510;2022-08-27T02:21:53;9.00;;;5.10;;
6117;SDS011;3089;48.202;11.510;2022-08-27T02:24:25;12.80;;;4.90;;
6117;SDS011;3089;48.202;11.510;2022-08-27T02:26:54;15.03;;;5.40;;
6117;SDS011;3089;48.202;11.510;2022-08-27T02:29:24;9.03;;;4.70;;
6117;SDS011;3089;48.202;11.510;2022-08-27T02:31:52;8.50;;;4.73;;
6117;SDS011;3089;48.202;11.510;2022-08-27T02:34:20;8.27;;;4.60;;
6117;SDS011;3089;48.202;11.510;2022-08-27T02:36:48;8.30;;;4.80;;
6117;SDS011;3089;48.202;11.510;2022-08-27T02:39:17;8.63;;;4.83;;
6117;SDS011;3089;48.202;11.510;2022-08-27T02:41:45;11.43;;;4.53;;
6117;SDS011;3089;48.202;11.510;2022-08-27T02:44:13;9.07;;;4.83;;
6117;SDS011;3089;48.202;11.510;2022-08-27T02:46:42;8.60;;;4.47;;
6117;SDS011;3089;48.202;11.510;2022-08-27T02:49:10;14.30;;;4.60;;
6117;SDS011;3089;48.202;11.510;2022-08-27T02:51:38;9.07;;;5.17;;
6117;SDS011;3089;48.202;11.510;2022-08-27T02:54:07;12.10;;;5.37;;
6117;SDS011;3089;48.202;11.510;2022-08-27T02:56:35;9.83;;;5.53;;
6117;SDS011;3089;48.202;11.510;2022-08-27T02:59:04;11.30;;;4.97;;
6117;SDS011;3089;48.202;11.510;2022-08-27T03:01:32;8.30;;;4.97;;
6117;SDS011;3089;48.202;11.510;2022-08-27T03:04:03;9.70;;;5.60;;
6117;SDS011;3089;48.202;11.510;2022-08-27T03:06:31;7.27;;;4.40;;
6117;SDS011;3089;48.202;11.510;2022-08-27T03:08:58;7.97;;;4.30;;
6117;SDS011;3089;48.202;11.510;2022-08-27T03:11:26;6.40;;;4.07;;
6117;SDS011;3089;48.202;11.510;2022-08-27T03:13:54;7.53;;;4.37;;
6117;SDS011;3089;48.202;11.510;2022-08-27T03:16:22;12.13;;;5.23;;
6117;SDS011;3089;48.202;11.510;2022-08-27T03:18:50;7.00;;;4.50;;
6117;SDS011;3089;48.202;11.510;2022-08-27T03:21:20;8.43;;;5.20;;
6117;SDS011;3089;48.202;11.510;2022-08-27T03:23:51;9.97;;;5.60;;
6117;SDS011;3089;48.202;11.510;2022-08-27T03:26:19;8.87;;;5.17;;
6117;SDS011;3089;48.202;11.510;2022-08-27T03:28:47;16.30;;;5.37;;
6117;SDS011;3089;48.202;11.510;2022-08-27T03:31:16;10.37;;;6.00;;
6117;SDS011;3089;48.202;11.510;2022-08-27T03:33:52;17.43;;;5.80;;
6117;SDS011;3089;48.202;11.510;2022-08-27T03:36:23;7.30;;;4.83;;
6117;SDS011;3089;48.202;11.510;2022-08-27T03:38:51;10.70;;;5.13;;
6117;SDS011;3089;48.202;11.510;2022-08-27T03:41:19;8.07;;;5.00;;
6117;SDS011;3089;48.202;11.510;2022-08-27T03:43:48;8.60;;;4.90;;
6117;SDS011;3089;48.202;11.510;2022-08-27T03:46:18;8.37;;;5.33;;
6117;SDS011;3089;48.202;11.510;2022-08-27T03:48:47;8.80;;;4.47;;
6117;SDS011;3089;48.202;11.510;2022-08-27T03:51:24;6.23;;;4.20;;
6117;SDS011;3089;48.202;11.510;2022-08-27T03:53:51;8.83;;;4.03;;
6117;SDS011;3089;48.202;11.510;2022-08-27T03:56:19;8.30;;;3.87;;
6117;SDS011;3089;48.202;11.510;2022-08-27T03:58:48;9.20;;;4.73;;
6117;SDS011;3089;48.202;11.510;2022-08-27T04:01:16;8.63;;;4.40;;
6117;SDS011;3089;48.202;11.510;2022-08-27T04:03:44;8.70;;;4.80;;
6117;SDS011;3089;48.202;11.510;2022-08-27T04:06:12;9.43;;;5.03;;
6117;SDS011;3089;48.202;11.510;2022-08-27T04:08:41;12.30;;;4.50;;
6117;SDS011;3089;48.202;11.510;2022-08-27T04:11:09;7.27;;;4.50;;
6117;SDS011;3089;48.202;11.510;2022-08-27T04:13:37;8.97;;;4.33;;
6117;SDS011;3089;48.202;11.510;2022-08-27T04:16:06;8.33;;;3.83;;
6117;SDS011;3089;48.202;11.510;2022-08-27T04:18:34;10.57;;;4.27;;
6117;SDS011;3089;48.202;11.510;2022-08-27T04:21:05;11.80;;;4.17;;
6117;SDS011;3089;48.202;11.510;2022-08-27T04:23:34;8.50;;;3.47;;
6117;SDS011;3089;48.202;11.510;2022-08-27T04:26:04;5.40;;;3.40;;
6117;SDS011;3089;48.202;11.510;2022-08-27T04:28:33;6.27;;;3.47;;
6117;SDS011;3089;48.202;11.510;2022-08-27T04:31:04;11.10;;;3.70;;
6117;SDS011;3089;48.202;11.510;2022-08-27T04:33:41;5.63;;;3.30;;
6117;SDS011;3089;48.202;11.510;2022-08-27T04:36:16;6.60;;;3.97;;
6117;SDS011;3089;48.202;11.510;2022-08-27T04:38:45;8.10;;;4.30;;
6117;SDS011;3089;48.202;11.510;2022-08-27T04:41:14;6.50;;;3.67;;
6117;SDS011;3089;48.202;11.510;2022-08-27T04:43:47;5.37;;;3.63;;
6117;SDS011;3089;48.202;11.510;2022-08-27T04:46:19;5.90;;;3.53;;
6117;SDS011;3089;48.202;11.510;2022-08-27T04:48:48;5.80;;;3.90;;
6117;SDS011;3089;48.202;11.510;2022-08-27T04:51:19;6.83;;;3.60;;
6117;SDS011;3089;48.202;11.510;2022-08-27T04:53:47;5.67;;;3.30;;
6117;SDS011;3089;48.202;11.510;2022-08-27T04:56:18;7.27;;;3.80;;
6117;SDS011;3089;48.202;11.510;2022-08-27T04:58:48;6.93;;;4.40;;
6117;SDS011;3089;48.202;11.510;2022-08-27T05:01:17;5.67;;;3.43;;
6117;SDS011;3089;48.202;11.510;2022-08-27T05:03:47;7.00;;;3.60;;
6117;SDS011;3089;48.202;11.510;2022-08-27T05:06:15;6.50;;;3.60;;
6117;SDS011;3089;48.202;11.510;2022-08-27T05:08:43;7.30;;;3.80;;
6117;SDS011;3089;48.202;11.510;2022-08-27T05:11:12;8.00;;;4.30;;
6117;SDS011;3089;48.202;11.510;2022-08-27T05:13:42;6.73;;;4.00;;
6117;SDS011;3089;48.202;11.510;2022-08-27T05:16:12;6.37;;;3.57;;
6117;SDS011;3089;48.202;11.510;2022-08-27T05:18:41;5.93;;;3.30;;
6117;SDS011;3089;48.202;11.510;2022-08-27T05:21:14;6.70;;;3.97;;
6117;SDS011;3089;48.202;11.510;2022-08-27T05:23:44;7.33;;;3.47;;
6117;SDS011;3089;48.202;11.510;2022-08-27T05:26:12;6.67;;;4.10;;
6117;SDS011;3089;48.202;11.510;2022-08-27T05:28:40;5.87;;;3.60;;
6117;SDS011;3089;48.202;11.510;2022-08-27T05:31:11;7.47;;;3.60;;
6117;SDS011;3089;48.202;11.510;2022-08-27T05:33:41;6.07;;;3.33;;
6117;SDS011;3089;48.202;11.510;2022-08-27T05:36:13;6.00;;;3.17;;
6117;SDS011;3089;48.202;11.510;2022-08-27T05:38:43;6.03;;;3.40;;
6117;SDS011;3089;48.202;11.510;2022-08-27T05:41:11;6.00;;;3.40;;
6117;SDS011;3089;48.202;11.510;2022-08-27T05:43:41;5.20;;;3.27;;
6117;SDS011;3089;48.202;11.510;2022-08-27T05:46:16;6.37;;;3.77;;
6117;SDS011;3089;48.202;11.510;2022-08-27T05:48:45;7.00;;;3.77;;
6117;SDS011;3089;48.202;11.510;2022-08-27T05:51:15;5.67;;;3.17;;
6117;SDS011;3089;48.202;11.510;2022-08-27T05:53:53;7.40;;;3.90;;
6117;SDS011;3089;48.202;11.510;2022-08-27T05:56:22;5.90;;;3.57;;
6117;SDS011;3089;48.202;11.510;2022-08-27T05:58:53;6.47;;;3.73;;
6117;SDS011;3089;48.202;11.510;2022-08-27T06:01:40;6.50;;;4.37;;
6117;SDS011;3089;48.202;11.510;2022-08-27T06:04:10;8.50;;;4.07;;
6117;SDS011;3089;48.202;11.510;2022-08-27T06:06:43;6.30;;;3.67;;
6117;SDS011;3089;48.202;11.510;2022-08-27T06:09:13;6.97;;;3.50;;
6117;SDS011;3089;48.202;11.510;2022-08-27T06:11:43;6.67;;;4.43;;
6117;SDS011;3089;48.202;11.510;2022-08-27T06:14:13;6.13;;;3.93;;
6117;SDS011;3089;48.202;11.510;2022-08-27T06:16:41;5.70;;;3.70;;
6117;SDS011;3089;48.202;11.510;2022-08-27T06:19:09;6.27;;;3.67;;
6117;SDS011;3089;48.202;11.510;2022-08-27T06:21:38;6.00;;;3.90;;
6117;SDS011;3089;48.202;11.510;2022-08-27T06:24:07;6.50;;;4.47;;
6117;SDS011;3089;48.202;11.510;2022-08-27T06:26:41;7.07;;;3.90;;
6117;SDS011;3089;48.202;11.510;2022-08-27T06:29:10;6.30;;;3.63;;
6117;SDS011;3089;48.202;11.510;2022-08-27T06:31:40;7.30;;;3.70;;
6117;SDS011;3089;48.202;11.510;2022-08-27T06:34:08;6.80;;;4.40;;
6117;SDS011;3089;48.202;11.510;2022-08-27T06:36:39;8.33;;;4.40;;
6117;SDS011;3089;48.202;11.510;2022-08-27T06:39:08;9.37;;;4.90;;
6117;SDS011;3089;48.202;11.510;2022-08-27T06:41:39;7.53;;;3.90;;
6117;SDS011;3089;48.202;11.510;2022-08-27T06:44:07;7.00;;;3.90;;
6117;SDS011;3089;48.202;11.510;2022-08-27T06:46:37;7.17;;;4.13;;
6117;SDS011;3089;48.202;11.510;2022-08-27T06:49:06;8.37;;;4.67;;
6117;SDS011;3089;48.202;11.510;2022-08-27T06:51:34;7.40;;;4.30;;
6117;SDS011;3089;48.202;11.510;2022-08-27T06:54:04;8.93;;;4.17;;
6117;SDS011;3089;48.202;11.510;2022-08-27T06:56:34;7.33;;;4.77;;
6117;SDS011;3089;48.202;11.510;2022-08-27T06:59:04;8.17;;;4.73;;
6117;SDS011;3089;48.202;11.510;2022-08-27T07:01:39;7.97;;;5.07;;
6117;SDS011;3089;48.202;11.510;2022-08-27T07:04:11;8.23;;;5.20;;
6117;SDS011;3089;48.202;11.510;2022-08-27T07:06:40;7.80;;;4.30;;
6117;SDS011;3089;48.202;11.510;2022-08-27T07:09:08;10.90;;;5.63;;
6117;SDS011;3089;48.202;11.510;2022-08-27T07:11:37;10.83;;;6.00;;
6117;SDS011;3089;48.202;11.510;2022-08-27T07:14:06;8.87;;;6.03;;
6117;SDS011;3089;48.202;11.510;2022-08-27T07:16:34;12.33;;;6.00;;
6117;SDS011;3089;48.202;11.510;2022-08-27T07:19:07;10.10;;;6.13;;
6117;SDS011;3089;48.202;11.510;2022-08-27T07:21:37;11.80;;;6.73;;
6117;SDS011;3089;48.202;11.510;2022-08-27T07:24:05;11.40;;;6.10;;
6117;SDS011;3089;48.202;11.510;2022-08-27T07:26:35;12.10;;;6.70;;
6117;SDS011;3089;48.202;11.510;2022-08-27T07:29:05;10.80;;;7.50;;
6117;SDS011;3089;48.202;11.510;2022-08-27T07:31:35;9.23;;;6.83;;
6117;SDS011;3089;48.202;11.510;2022-08-27T07:34:03;12.00;;;7.23;;
6117;SDS011;3089;48.202;11.510;2022-08-27T07:36:34;12.67;;;7.07;;
6117;SDS011;3089;48.202;11.510;2022-08-27T07:39:03;10.77;;;7.53;;
6117;SDS011;3089;48.202;11.510;2022-08-27T07:41:32;10.67;;;6.87;;
6117;SDS011;3089;48.202;11.510;2022-08-27T07:44:22;11.43;;;7.07;;
6117;SDS011;3089;48.202;11.510;2022-08-27T07:46:59;11.47;;;7.80;;
6117;SDS011;3089;48.202;11.510;2022-08-27T07:49:28;13.50;;;7.23;;
6117;SDS011;3089;48.202;11.510;2022-08-27T07:51:57;11.83;;;7.40;;
6117;SDS011;3089;48.202;11.510;2022-08-27T07:54:26;9.33;;;7.03;;
6117;SDS011;3089;48.202;11.510;2022-08-27T07:56:54;11.10;;;7.30;;
6117;SDS011;3089;48.202;11.510;2022-08-27T07:59:22;13.30;;;7.53;;
6117;SDS011;3089;48.202;11.510;2022-08-27T08:01:51;10.10;;;6.93;;
6117;SDS011;3089;48.202;11.510;2022-08-27T08:04:20;10.77;;;7.43;;
6117;SDS011;3089;48.202;11.510;2022-08-27T08:06:48;10.77;;;6.50;;
6117;SDS011;3089;48.202;11.510;2022-08-27T08:09:19;20.03;;;6.20;;
6117;SDS011;3089;48.202;11.510;2022-08-27T08:11:49;10.53;;;5.87;;
6117;SDS011;3089;48.202;11.510;2022-08-27T08:14:18;9.63;;;6.07;;
6117;SDS011;3089;48.202;11.510;2022-08-27T08:16:46;11.20;;;6.10;;
6117;SDS011;3089;48.202;11.510;2022-08-27T08:19:14;10.77;;;6.13;;
6117;SDS011;3089;48.202;11.510;2022-08-27T08:21:42;7.87;;;5.20;;
6117;SDS011;3089;48.202;11.510;2022-08-27T08:24:10;10.43;;;6.00;;
6117;SDS011;3089;48.202;11.510;2022-08-27T08:26:39;9.20;;;6.03;;
6117;SDS011;3089;48.202;11.510;2022-08-27T08:29:09;9.70;;;5.70;;
6117;SDS011;3089;48.202;11.510;2022-08-27T08:31:43;10.63;;;6.80;;
6117;SDS011;3089;48.202;11.510;2022-08-27T08:34:15;9.40;;;5.83;;
6117;SDS011;3089;48.202;11.510;2022-08-27T08:36:43;10.20;;;5.87;;
6117;SDS011;3089;48.202;11.510;2022-08-27T08:39:20;8.17;;;5.40;;
6117;SDS011;3089;48.202;11.510;2022-08-27T08:41:50;7.93;;;5.20;;
6117;SDS011;3089;48.202;11.510;2022-08-27T08:44:23;7.80;;;4.43;;
6117;SDS011;3089;48.202;11.510;2022-08-27T08:46:58;8.67;;;5.27;;
6117;SDS011;3089;48.202;11.510;2022-08-27T08:49:31;8.60;;;5.07;;
6117;SDS011;3089;48.202;11.510;2022-08-27T08:52:09;7.43;;;5.40;;
6117;SDS011;3089;48.202;11.510;2022-08-27T08:54:58;8.93;;;5.20;;
6117;SDS011;3089;48.202;11.510;2022-08-27T08:57:35;6.67;;;4.50;;
6117;SDS011;3089;48.202;11.510;2022-08-27T09:00:10;11.67;;;5.30;;
6117;SDS011;3089;48.202;11.510;2022-08-27T09:02:39;6.17;;;4.30;;
6117;SDS011;3089;48.202;11.510;2022-08-27T09:05:13;8.93;;;5.70;;
6117;SDS011;3089;48.202;11.510;2022-08-27T09:07:42;8.70;;;4.73;;
6117;SDS011;3089;48.202;11.510;2022-08-27T09:10:17;7.60;;;4.50;;
6117;SDS011;3089;48.202;11.510;2022-08-27T09:12:54;8.70;;;5.30;;
6117;SDS011;3089;48.202;11.510;2022-08-27T09:15:28;7.13;;;4.40;;
6117;SDS011;3089;48.202;11.510;2022-08-27T09:18:03;11.20;;;5.17;;
6117;SDS011;3089;48.202;11.510;2022-08-27T09:20:39;7.00;;;5.00;;
6117;SDS011;3089;48.202;11.510;2022-08-27T09:23:16;8.97;;;4.50;;
6117;SDS011;3089;48.202;11.510;2022-08-27T09:25:48;7.80;;;4.73;;
6117;SDS011;3089;48.202;11.510;2022-08-27T09:28:20;7.90;;;4.57;;
6117;SDS011;3089;48.202;11.510;2022-08-27T09:31:10;7.20;;;4.87;;
6117;SDS011;3089;48.202;11.510;2022-08-27T09:33:40;10.90;;;4.70;;
6117;SDS011;3089;48.202;11.510;2022-08-27T09:36:22;7.43;;;4.57;;
6117;SDS011;3089;48.202;11.510;2022-08-27T09:38:51;6.70;;;4.73;;
6117;SDS011;3089;48.202;11.510;2022-08-27T09:41:24;7.10;;;4.27;;
6117;SDS011;3089;48.202;11.510;2022-08-27T09:44:01;6.70;;;4.43;;
6117;SDS011;3089;48.202;11.510;2022-08-27T09:46:33;6.90;;;4.00;;
6117;SDS011;3089;48.202;11.510;2022-08-27T09:49:08;11.37;;;4.00;;
6117;SDS011;3089;48.202;11.510;2022-08-27T09:51:38;8.23;;;3.67;;
6117;SDS011;3089;48.202;11.510;2022-08-27T09:54:08;9.53;;;4.80;;
6117;SDS011;3089;48.202;11.510;2022-08-27T09:56:38;5.90;;;3.93;;
6117;SDS011;3089;48.202;11.510;2022-08-27T09:59:09;10.37;;;3.73;;
6117;SDS011;3089;48.202;11.510;2022-08-27T10:01:48;9.07;;;4.03;;
6117;SDS011;3089;48.202;11.510;2022-08-27T10:04:22;5.53;;;3.30;;
6117;SDS011;3089;48.202;11.510;2022-08-27T10:06:52;6.50;;;4.23;;
6117;SDS011;3089;48.202;11.510;2022-08-27T10:09:21;7.23;;;3.40;;
6117;SDS011;3089;48.202;11.510;2022-08-27T10:11:56;6.33;;;3.60;;
6117;SDS011;3089;48.202;11.510;2022-08-27T10:14:29;9.83;;;3.60;;
6117;SDS011;3089;48.202;11.510;2022-08-27T10:17:04;6.60;;;3.50;;
6117;SDS011;3089;48.202;11.510;2022-08-27T10:19:41;8.47;;;4.10;;
6117;SDS011;3089;48.202;11.510;2022-08-27T10:22:19;7.37;;;4.00;;
6117;SDS011;3089;48.202;11.510;2022-08-27T10:25:01;4.60;;;2.87;;
6117;SDS011;3089;48.202;11.510;2022-08-27T10:27:39;5.63;;;3.37;;
6117;SDS011;3089;48.202;11.510;2022-08-27T10:30:17;4.43;;;2.73;;
6117;SDS011;3089;48.202;11.510;2022-08-27T10:32:55;5.87;;;3.27;;
6117;SDS011;3089;48.202;11.510;2022-08-27T10:35:31;4.90;;;2.57;;
6117;SDS011;3089;48.202;11.510;2022-08-27T10:38:13;4.70;;;2.33;;
6117;SDS011;3089;48.202;11.510;2022-08-27T10:40:49;5.77;;;2.20;;
6117;SDS011;3089;48.202;11.510;2022-08-27T10:43:32;6.73;;;2.90;;
6117;SDS011;3089;48.202;11.510;2022-08-27T10:46:30;11.40;;;3.20;;
6117;SDS011;3089;48.202;11.510;2022-08-27T10:49:17;8.20;;;3.13;;
6117;SDS011;3089;48.202;11.510;2022-08-27T10:51:56;5.50;;;2.97;;
6117;SDS011;3089;48.202;11.510;2022-08-27T10:54:34;5.60;;;2.30;;
6117;SDS011;3089;48.202;11.510;2022-08-27T10:57:07;4.77;;;2.60;;
6117;SDS011;3089;48.202;11.510;2022-08-27T11:00:03;4.70;;;2.13;;
6117;SDS011;3089;48.202;11.510;2022-08-27T11:02:38;8.10;;;2.70;;
6117;SDS011;3089;48.202;11.510;2022-08-27T11:05:13;8.93;;;2.60;;
6117;SDS011;3089;48.202;11.510;2022-08-27T11:07:44;5.97;;;2.50;;
6117;SDS011;3089;48.202;11.510;2022-08-27T11:10:18;5.90;;;3.10;;
6117;SDS011;3089;48.202;11.510;2022-08-27T11:12:52;4.40;;;2.63;;
6117;SDS011;3089;48.202;11.510;2022-08-27T11:15:23;5.40;;;2.30;;
6117;SDS011;3089;48.202;11.510;2022-08-27T11:17:56;5.03;;;2.60;;
6117;SDS011;3089;48.202;11.510;2022-08-27T11:20:30;4.13;;;2.27;;
6117;SDS011;3089;48.202;11.510;2022-08-27T11:23:02;6.73;;;2.50;;
6117;SDS011;3089;48.202;11.510;2022-08-27T11:25:36;6.10;;;3.10;;
6117;SDS011;3089;48.202;11.510;2022-08-27T11:28:09;7.40;;;3.37;;
6117;SDS011;3089;48.202;11.510;2022-08-27T11:30:41;5.67;;;3.30;;
6117;SDS011;3089;48.202;11.510;2022-08-27T11:33:19;5.70;;;3.20;;
6117;SDS011;3089;48.202;11.510;2022-08-27T11:36:01;4.60;;;2.90;;
6117;SDS011;3089;48.202;11.510;2022-08-27T11:38:50;5.50;;;3.17;;
6117;SDS011;3089;48.202;11.510;2022-08-27T11:44:18;6.37;;;2.90;;
6117;SDS011;3089;48.202;11.510;2022-08-27T11:46:49;4.90;;;2.50;;
6117;SDS011;3089;48.202;11.510;2022-08-27T11:49:25;5.07;;;2.97;;
6117;SDS011;3089;48.202;11.510;2022-08-27T11:51:56;5.93;;;3.40;;
6117;SDS011;3089;48.202;11.510;2022-08-27T11:54:28;6.50;;;3.33;;
6117;SDS011;3089;48.202;11.510;2022-08-27T11:56:58;8.73;;;3.50;;
6117;SDS011;3089;48.202;11.510;2022-08-27T11:59:29;6.13;;;3.13;;
6117;SDS011;3089;48.202;11.510;2022-08-27T12:02:10;6.53;;;3.40;;
6117;SDS011;3089;48.202;11.510;2022-08-27T12:04:49;7.13;;;4.03;;
6117;SDS011;3089;48.202;11.510;2022-08-27T12:07:23;6.40;;;3.83;;
6117;SDS011;3089;48.202;11.510;2022-08-27T12:10:00;7.33;;;4.23;;
6117;SDS011;3089;48.202;11.510;2022-08-27T12:12:55;6.47;;;4.10;;
6117;SDS011;3089;48.202;11.510;2022-08-27T12:15:39;7.23;;;4.20;;
6117;SDS011;3089;48.202;11.510;2022-08-27T12:18:31;5.67;;;3.10;;
6117;SDS011;3089;48.202;11.510;2022-08-27T12:21:13;6.67;;;3.30;;
6117;SDS011;3089;48.202;11.510;2022-08-27T12:23:48;10.03;;;4.13;;
6117;SDS011;3089;48.202;11.510;2022-08-27T12:26:30;8.60;;;3.20;;
6117;SDS011;3089;48.202;11.510;2022-08-27T12:29:17;8.23;;;3.53;;
6117;SDS011;3089;48.202;11.510;2022-08-27T12:31:54;12.40;;;3.03;;
6117;SDS011;3089;48.202;11.510;2022-08-27T12:34:28;8.20;;;2.70;;
6117;SDS011;3089;48.202;11.510;2022-08-27T12:37:09;6.20;;;2.97;;
6117;SDS011;3089;48.202;11.510;2022-08-27T12:39:40;5.77;;;3.03;;
6117;SDS011;3089;48.202;11.510;2022-08-27T12:42:14;5.90;;;3.27;;
6117;SDS011;3089;48.202;11.510;2022-08-27T12:44:46;4.00;;;2.10;;
6117;SDS011;3089;48.202;11.510;2022-08-27T12:47:20;4.77;;;2.30;;
6117;SDS011;3089;48.202;11.510;2022-08-27T12:49:50;5.27;;;2.80;;
6117;SDS011;3089;48.202;11.510;2022-08-27T12:52:34;5.63;;;2.53;;
6117;SDS011;3089;48.202;11.510;2022-08-27T12:55:13;6.77;;;2.37;;
6117;SDS011;3089;48.202;11.510;2022-08-27T12:57:50;8.43;;;3.30;;
6117;SDS011;3089;48.202;11.510;2022-08-27T13:00:25;4.67;;;2.73;;
6117;SDS011;3089;48.202;11.510;2022-08-27T13:03:08;6.20;;;2.60;;
6117;SDS011;3089;48.202;11.510;2022-08-27T13:05:48;4.33;;;2.30;;
6117;SDS011;3089;48.202;11.510;2022-08-27T13:08:25;5.47;;;2.40;;
6117;SDS011;3089;48.202;11.510;2022-08-27T13:10:55;5.90;;;2.03;;
6117;SDS011;3089;48.202;11.510;2022-08-27T13:13:39;4.53;;;2.20;;
6117;SDS011;3089;48.202;11.510;2022-08-27T13:16:07;5.80;;;2.77;;
6117;SDS011;3089;48.202;11.510;2022-08-27T13:18:35;4.20;;;1.77;;
6117;SDS011;3089;48.202;11.510;2022-08-27T13:21:06;5.00;;;2.30;;
6117;SDS011;3089;48.202;11.510;2022-08-27T13:23:44;6.37;;;2.73;;
6117;SDS011;3089;48.202;11.510;2022-08-27T13:26:19;6.43;;;2.80;;
6117;SDS011;3089;48.202;11.510;2022-08-27T13:28:48;5.27;;;2.97;;
6117;SDS011;3089;48.202;11.510;2022-08-27T13:31:17;4.70;;;2.27;;
6117;SDS011;3089;48.202;11.510;2022-08-27T13:33:47;5.43;;;2.73;;
6117;SDS011;3089;48.202;11.510;2022-08-27T13:36:24;5.90;;;2.90;;
6117;SDS011;3089;48.202;11.510;2022-08-27T13:38:59;5.77;;;2.60;;
6117;SDS011;3089;48.202;11.510;2022-08-27T13:41:29;5.20;;;2.37;;
6117;SDS011;3089;48.202;11.510;2022-08-27T13:44:08;5.40;;;2.50;;
6117;SDS011;3089;48.202;11.510;2022-08-27T13:46:41;9.60;;;3.17;;
6117;SDS011;3089;48.202;11.510;2022-08-27T13:49:15;4.50;;;2.27;;
6117;SDS011;3089;48.202;11.510;2022-08-27T13:51:56;4.93;;;2.17;;
6117;SDS011;3089;48.202;11.510;2022-08-27T13:54:28;7.90;;;3.00;;
6117;SDS011;3089;48.202;11.510;2022-08-27T13:56:58;5.07;;;2.00;;
6117;SDS011;3089;48.202;11.510;2022-08-27T13:59:34;5.20;;;2.50;;
6117;SDS011;3089;48.202;11.510;2022-08-27T14:02:17;5.03;;;2.80;;
6117;SDS011;3089;48.202;11.510;2022-08-27T14:04:49;3.63;;;2.10;;
6117;SDS011;3089;48.202;11.510;2022-08-27T14:07:20;4.80;;;2.17;;
6117;SDS011;3089;48.202;11.510;2022-08-27T14:09:53;7.17;;;2.40;;
6117;SDS011;3089;48.202;11.510;2022-08-27T14:12:26;3.93;;;2.00;;
6117;SDS011;3089;48.202;11.510;2022-08-27T14:14:58;5.83;;;2.40;;
6117;SDS011;3089;48.202;11.510;2022-08-27T14:17:44;6.70;;;2.50;;
6117;SDS011;3089;48.202;11.510;2022-08-27T14:20:13;6.13;;;2.67;;
6117;SDS011;3089;48.202;11.510;2022-08-27T14:22:41;5.70;;;1.87;;
6117;SDS011;3089;48.202;11.510;2022-08-27T14:25:11;5.90;;;2.20;;
6117;SDS011;3089;48.202;11.510;2022-08-27T14:27:40;8.20;;;2.33;;
6117;SDS011;3089;48.202;11.510;2022-08-27T14:30:23;6.77;;;2.67;;
6117;SDS011;3089;48.202;11.510;2022-08-27T14:32:55;4.80;;;2.60;;
6117;SDS011;3089;48.202;11.510;2022-08-27T14:35:27;4.90;;;2.60;;
6117;SDS011;3089;48.202;11.510;2022-08-27T14:37:57;5.60;;;3.00;;
6117;SDS011;3089;48.202;11.510;2022-08-27T14:40:27;6.33;;;2.40;;
6117;SDS011;3089;48.202;11.510;2022-08-27T14:42:58;4.70;;;2.13;;
6117;SDS011;3089;48.202;11.510;2022-08-27T14:45:26;6.23;;;2.40;;
6117;SDS011;3089;48.202;11.510;2022-08-27T14:47:54;4.43;;;2.70;;
6117;SDS011;3089;48.202;11.510;2022-08-27T14:50:27;4.63;;;2.60;;
6117;SDS011;3089;48.202;11.510;2022-08-27T14:52:55;5.57;;;2.80;;
6117;SDS011;3089;48.202;11.510;2022-08-27T14:55:23;4.20;;;2.37;;
6117;SDS011;3089;48.202;11.510;2022-08-27T14:57:52;6.80;;;2.90;;
6117;SDS011;3089;48.202;11.510;2022-08-27T15:00:20;6.77;;;2.97;;
6117;SDS011;3089;48.202;11.510;2022-08-27T15:02:48;5.73;;;2.30;;
6117;SDS011;3089;48.202;11.510;2022-08-27T15:05:17;5.40;;;2.67;;
6117;SDS011;3089;48.202;11.510;2022-08-27T15:07:50;5.20;;;2.43;;
6117;SDS011;3089;48.202;11.510;2022-08-27T15:10:19;5.33;;;2.40;;
6117;SDS011;3089;48.202;11.510;2022-08-27T15:12:47;4.80;;;2.63;;
6117;SDS011;3089;48.202;11.510;2022-08-27T15:15:17;11.50;;;2.50;;
6117;SDS011;3089;48.202;11.510;2022-08-27T15:17:45;5.90;;;2.60;;
6117;SDS011;3089;48.202;11.510;2022-08-27T15:20:13;6.67;;;3.20;;
6117;SDS011;3089;48.202;11.510;2022-08-27T15:22:45;9.37;;;4.00;;
6117;SDS011;3089;48.202;11.510;2022-08-27T15:25:14;11.43;;;4.50;;
6117;SDS011;3089;48.202;11.510;2022-08-27T15:27:43;6.30;;;3.80;;
6117;SDS011;3089;48.202;11.510;2022-08-27T15:30:12;7.30;;;4.37;;
6117;SDS011;3089;48.202;11.510;2022-08-27T15:32:43;9.20;;;4.40;;